Noi Bai International Airport
VVNB : now visible

Airfield :











YOU CAN JOIN US ON...

 
LOGIN :

Register | Disclaimer

   EN    FR    IT 

 









Legend :    VFR   Marginal VFR   IFR   Intensive IFR   Very Intensive IFR
Visi :
Ceiling :
>= 8 km
>= 3000ft
5 to 8 km
1000 to 3000 ft
1500m to 5 km
500 to 1000 ft
800 to 1500m
200 to 500 ft
< 800m
< 200 ft
Symbols :   Thunderstorms  Fog  Heavy snow  Heavy precipitations  Wind > 20 kt






- Airport Elevation : 39 ft
- IATA code : HAN


VVNB - Noi Bai International

CURRENT METAR :
  • 211300Z 06003KT 030V110 8000 NSC 20/16 Q1018 NOSIG

EXPIRED METARs :
  • 211230Z 06003KT 020V130 9000 NSC 20/16 Q1018 NOSIG
  • 211200Z VRB02KT 9000 NSC 21/17 Q1018 NOSIG
  • 211130Z 04003KT 360V130 7000 NSC 21/17 Q1017 NOSIG
  • 211100Z VRB04KT 6000 NSC 22/17 Q1017 NOSIG
  • 211030Z VRB03KT 7000 NSC 22/16 Q1017 NOSIG

TAF TAF VVNB
Valid from the 21 at 12:00 until the 22 at 12:00 UTC


211100Z 2112/2212 03005KT 6000 SCT020
BECMG 2120/2121 3000 BR
BECMG 2201/2202 8000 NSW



MET'MAP, your aeronautical weather chart ! - Copyright ORBIFLY December 2007 - Disclaimer

ORBIFLY MET'MAP TEAM :

Programming & Development : Alexandra Zaïnal
Concept & Development : Baudouin d'Aumeries
Co-Development & Prog : Marc-Olivier Méhu
Technical & hardware support : Manuel Goepfert

Contact : metmap@orbifly.com




SOURCES & CREDITS :

   NOAA       Earth
Advisory